sensor_id;sensor_type;location;lat;lon;timestamp;P1;durP1;ratioP1;P2;durP2;ratioP2
58250;SDS011;51449;51.676;5.812;2022-08-14T00:02:03;7.78;;;7.03;;
58250;SDS011;51449;51.676;5.812;2022-08-14T00:04:27;7.95;;;7.18;;
58250;SDS011;51449;51.676;5.812;2022-08-14T00:07:03;8.05;;;7.35;;
58250;SDS011;51449;51.676;5.812;2022-08-14T00:11:53;8.27;;;7.53;;
58250;SDS011;51449;51.676;5.812;2022-08-14T00:14:16;8.55;;;7.28;;
58250;SDS011;51449;51.676;5.812;2022-08-14T00:16:39;8.15;;;7.47;;
58250;SDS011;51449;51.676;5.812;2022-08-14T00:19:05;8.43;;;7.53;;
58250;SDS011;51449;51.676;5.812;2022-08-14T00:21:40;9.75;;;7.32;;
58250;SDS011;51449;51.676;5.812;2022-08-14T00:24:02;8.40;;;7.60;;
58250;SDS011;51449;51.676;5.812;2022-08-14T00:26:24;8.43;;;7.80;;
58250;SDS011;51449;51.676;5.812;2022-08-14T00:28:49;9.38;;;7.20;;
58250;SDS011;51449;51.676;5.812;2022-08-14T00:31:14;8.82;;;7.70;;
58250;SDS011;51449;51.676;5.812;2022-08-14T00:33:37;9.45;;;7.40;;
58250;SDS011;51449;51.676;5.812;2022-08-14T00:36:13;7.97;;;7.38;;
58250;SDS011;51449;51.676;5.812;2022-08-14T00:38:55;8.40;;;7.57;;
58250;SDS011;51449;51.676;5.812;2022-08-14T00:41:17;8.55;;;7.88;;
58250;SDS011;51449;51.676;5.812;2022-08-14T00:43:40;8.48;;;7.65;;
58250;SDS011;51449;51.676;5.812;2022-08-14T00:46:07;8.80;;;7.57;;
58250;SDS011;51449;51.676;5.812;2022-08-14T00:48:50;8.80;;;7.78;;
58250;SDS011;51449;51.676;5.812;2022-08-14T00:51:14;8.63;;;7.82;;
58250;SDS011;51449;51.676;5.812;2022-08-14T00:53:36;8.50;;;7.70;;
58250;SDS011;51449;51.676;5.812;2022-08-14T00:56:03;8.32;;;7.47;;
58250;SDS011;51449;51.676;5.812;2022-08-14T00:58:28;9.45;;;7.53;;
58250;SDS011;51449;51.676;5.812;2022-08-14T01:00:53;8.82;;;8.10;;
58250;SDS011;51449;51.676;5.812;2022-08-14T01:03:18;8.90;;;7.80;;
58250;SDS011;51449;51.676;5.812;2022-08-14T01:05:41;8.77;;;7.87;;
58250;SDS011;51449;51.676;5.812;2022-08-14T01:08:12;8.63;;;7.82;;
58250;SDS011;51449;51.676;5.812;2022-08-14T01:10:55;8.57;;;7.75;;
58250;SDS011;51449;51.676;5.812;2022-08-14T01:13:20;10.23;;;8.05;;
58250;SDS011;51449;51.676;5.812;2022-08-14T01:16:04;8.35;;;7.35;;
58250;SDS011;51449;51.676;5.812;2022-08-14T01:18:34;8.68;;;7.88;;
58250;SDS011;51449;51.676;5.812;2022-08-14T01:21:23;8.30;;;7.50;;
58250;SDS011;51449;51.676;5.812;2022-08-14T01:23:55;8.55;;;7.88;;
58250;SDS011;51449;51.676;5.812;2022-08-14T01:26:17;8.80;;;8.00;;
58250;SDS011;51449;51.676;5.812;2022-08-14T01:28:58;8.60;;;7.72;;
58250;SDS011;51449;51.676;5.812;2022-08-14T01:31:23;8.00;;;7.30;;
58250;SDS011;51449;51.676;5.812;2022-08-14T01:33:51;8.50;;;7.70;;
58250;SDS011;51449;51.676;5.812;2022-08-14T01:36:37;8.60;;;7.78;;
58250;SDS011;51449;51.676;5.812;2022-08-14T01:39:00;8.52;;;7.72;;
58250;SDS011;51449;51.676;5.812;2022-08-14T01:41:30;8.40;;;7.60;;
58250;SDS011;51449;51.676;5.812;2022-08-14T01:43:53;8.40;;;7.63;;
58250;SDS011;51449;51.676;5.812;2022-08-14T01:46:22;8.30;;;7.60;;
58250;SDS011;51449;51.676;5.812;2022-08-14T01:48:54;9.20;;;8.40;;
58250;SDS011;51449;51.676;5.812;2022-08-14T01:51:20;9.13;;;8.25;;
58250;SDS011;51449;51.676;5.812;2022-08-14T01:53:46;9.43;;;8.52;;
58250;SDS011;51449;51.676;5.812;2022-08-14T01:56:16;9.05;;;8.32;;
58250;SDS011;51449;51.676;5.812;2022-08-14T01:58:39;9.52;;;8.57;;
58250;SDS011;51449;51.676;5.812;2022-08-14T02:01:18;9.25;;;8.48;;
58250;SDS011;51449;51.676;5.812;2022-08-14T02:03:46;9.70;;;8.65;;
58250;SDS011;51449;51.676;5.812;2022-08-14T02:06:17;9.65;;;8.77;;
58250;SDS011;51449;51.676;5.812;2022-08-14T02:08:54;9.40;;;8.52;;
58250;SDS011;51449;51.676;5.812;2022-08-14T02:11:16;10.00;;;8.90;;
58250;SDS011;51449;51.676;5.812;2022-08-14T02:13:46;10.15;;;9.15;;
58250;SDS011;51449;51.676;5.812;2022-08-14T02:16:29;9.50;;;8.55;;
58250;SDS011;51449;51.676;5.812;2022-08-14T02:18:58;9.55;;;8.77;;
58250;SDS011;51449;51.676;5.812;2022-08-14T02:21:26;9.52;;;8.73;;
58250;SDS011;51449;51.676;5.812;2022-08-14T02:24:04;10.30;;;9.02;;
58250;SDS011;51449;51.676;5.812;2022-08-14T02:26:47;10.07;;;9.18;;
58250;SDS011;51449;51.676;5.812;2022-08-14T02:29:33;9.75;;;8.82;;
58250;SDS011;51449;51.676;5.812;2022-08-14T02:32:15;10.27;;;9.20;;
58250;SDS011;51449;51.676;5.812;2022-08-14T02:34:58;10.20;;;9.30;;
58250;SDS011;51449;51.676;5.812;2022-08-14T02:37:21;10.50;;;9.60;;
58250;SDS011;51449;51.676;5.812;2022-08-14T02:39:43;9.88;;;9.00;;
58250;SDS011;51449;51.676;5.812;2022-08-14T02:42:10;11.52;;;9.18;;
58250;SDS011;51449;51.676;5.812;2022-08-14T02:44:44;10.68;;;9.68;;
58250;SDS011;51449;51.676;5.812;2022-08-14T02:47:09;11.93;;;10.57;;
58250;SDS011;51449;51.676;5.812;2022-08-14T02:49:39;11.57;;;10.45;;
58250;SDS011;51449;51.676;5.812;2022-08-14T02:52:03;10.93;;;9.90;;
58250;SDS011;51449;51.676;5.812;2022-08-14T02:54:47;11.60;;;10.43;;
58250;SDS011;51449;51.676;5.812;2022-08-14T02:57:09;11.45;;;10.35;;
58250;SDS011;51449;51.676;5.812;2022-08-14T02:59:37;11.30;;;10.05;;
58250;SDS011;51449;51.676;5.812;2022-08-14T03:02:03;12.13;;;10.80;;
58250;SDS011;51449;51.676;5.812;2022-08-14T03:04:25;11.85;;;10.73;;
58250;SDS011;51449;51.676;5.812;2022-08-14T03:06:49;12.48;;;11.02;;
58250;SDS011;51449;51.676;5.812;2022-08-14T03:09:27;13.35;;;11.55;;
58250;SDS011;51449;51.676;5.812;2022-08-14T03:12:09;11.77;;;10.68;;
58250;SDS011;51449;51.676;5.812;2022-08-14T03:14:38;11.95;;;10.75;;
58250;SDS011;51449;51.676;5.812;2022-08-14T03:17:05;12.60;;;10.95;;
58250;SDS011;51449;51.676;5.812;2022-08-14T03:19:33;10.88;;;9.93;;
58250;SDS011;51449;51.676;5.812;2022-08-14T03:21:56;11.43;;;10.30;;
58250;SDS011;51449;51.676;5.812;2022-08-14T03:24:19;11.30;;;10.27;;
58250;SDS011;51449;51.676;5.812;2022-08-14T03:29:11;11.95;;;10.85;;
58250;SDS011;51449;51.676;5.812;2022-08-14T03:31:36;12.07;;;10.55;;
58250;SDS011;51449;51.676;5.812;2022-08-14T03:34:03;12.55;;;11.35;;
58250;SDS011;51449;51.676;5.812;2022-08-14T03:36:30;12.63;;;11.40;;
58250;SDS011;51449;51.676;5.812;2022-08-14T03:39:15;12.93;;;11.38;;
58250;SDS011;51449;51.676;5.812;2022-08-14T03:41:44;12.02;;;10.82;;
58250;SDS011;51449;51.676;5.812;2022-08-14T03:44:06;13.88;;;12.00;;
58250;SDS011;51449;51.676;5.812;2022-08-14T03:46:48;12.90;;;11.60;;
58250;SDS011;51449;51.676;5.812;2022-08-14T03:49:19;13.07;;;11.80;;
58250;SDS011;51449;51.676;5.812;2022-08-14T03:51:48;13.73;;;12.37;;
58250;SDS011;51449;51.676;5.812;2022-08-14T03:54:14;14.55;;;11.48;;
58250;SDS011;51449;51.676;5.812;2022-08-14T03:56:41;15.50;;;12.95;;
58250;SDS011;51449;51.676;5.812;2022-08-14T03:59:10;13.93;;;12.52;;
58250;SDS011;51449;51.676;5.812;2022-08-14T04:01:39;15.25;;;13.75;;
58250;SDS011;51449;51.676;5.812;2022-08-14T04:04:14;14.43;;;12.95;;
58250;SDS011;51449;51.676;5.812;2022-08-14T04:06:38;15.05;;;13.57;;
58250;SDS011;51449;51.676;5.812;2022-08-14T04:09:09;13.98;;;12.48;;
58250;SDS011;51449;51.676;5.812;2022-08-14T04:11:30;14.68;;;13.35;;
58250;SDS011;51449;51.676;5.812;2022-08-14T04:13:53;13.85;;;12.65;;
58250;SDS011;51449;51.676;5.812;2022-08-14T04:16:17;13.95;;;12.75;;
58250;SDS011;51449;51.676;5.812;2022-08-14T04:18:44;14.38;;;13.00;;
58250;SDS011;51449;51.676;5.812;2022-08-14T04:21:09;16.00;;;13.65;;
58250;SDS011;51449;51.676;5.812;2022-08-14T04:23:32;14.37;;;12.87;;
58250;SDS011;51449;51.676;5.812;2022-08-14T04:25:55;15.80;;;14.18;;
58250;SDS011;51449;51.676;5.812;2022-08-14T04:28:17;15.40;;;13.88;;
58250;SDS011;51449;51.676;5.812;2022-08-14T04:30:59;15.85;;;13.82;;
58250;SDS011;51449;51.676;5.812;2022-08-14T04:33:24;15.73;;;14.23;;
58250;SDS011;51449;51.676;5.812;2022-08-14T04:35:50;15.00;;;13.80;;
58250;SDS011;51449;51.676;5.812;2022-08-14T04:38:19;15.57;;;14.25;;
58250;SDS011;51449;51.676;5.812;2022-08-14T04:41:01;14.95;;;13.55;;
58250;SDS011;51449;51.676;5.812;2022-08-14T04:43:42;15.77;;;14.20;;
58250;SDS011;51449;51.676;5.812;2022-08-14T04:46:11;16.83;;;15.15;;
58250;SDS011;51449;51.676;5.812;2022-08-14T04:48:58;15.32;;;13.80;;
58250;SDS011;51449;51.676;5.812;2022-08-14T04:51:21;15.25;;;13.85;;
58250;SDS011;51449;51.676;5.812;2022-08-14T04:53:50;15.65;;;14.25;;
58250;SDS011;51449;51.676;5.812;2022-08-14T04:56:17;15.45;;;13.98;;
58250;SDS011;51449;51.676;5.812;2022-08-14T04:58:58;16.60;;;15.02;;
58250;SDS011;51449;51.676;5.812;2022-08-14T05:01:31;15.93;;;14.32;;
58250;SDS011;51449;51.676;5.812;2022-08-14T05:04:00;16.13;;;13.95;;
58250;SDS011;51449;51.676;5.812;2022-08-14T05:06:22;16.02;;;14.52;;
58250;SDS011;51449;51.676;5.812;2022-08-14T05:08:59;15.55;;;14.00;;
58250;SDS011;51449;51.676;5.812;2022-08-14T05:11:21;15.77;;;14.25;;
58250;SDS011;51449;51.676;5.812;2022-08-14T05:13:44;17.95;;;15.35;;
58250;SDS011;51449;51.676;5.812;2022-08-14T05:16:26;15.38;;;13.98;;
58250;SDS011;51449;51.676;5.812;2022-08-14T05:18:51;15.52;;;13.93;;
58250;SDS011;51449;51.676;5.812;2022-08-14T05:21:33;15.38;;;13.98;;
58250;SDS011;51449;51.676;5.812;2022-08-14T05:24:15;15.85;;;14.23;;
58250;SDS011;51449;51.676;5.812;2022-08-14T05:26:38;15.65;;;14.25;;
58250;SDS011;51449;51.676;5.812;2022-08-14T05:29:07;15.27;;;13.88;;
58250;SDS011;51449;51.676;5.812;2022-08-14T05:31:32;18.80;;;15.38;;
58250;SDS011;51449;51.676;5.812;2022-08-14T05:34:00;15.52;;;14.13;;
58250;SDS011;51449;51.676;5.812;2022-08-14T05:36:23;15.55;;;14.05;;
58250;SDS011;51449;51.676;5.812;2022-08-14T05:41:16;15.63;;;13.73;;
58250;SDS011;51449;51.676;5.812;2022-08-14T05:43:39;16.05;;;14.55;;
58250;SDS011;51449;51.676;5.812;2022-08-14T05:46:04;16.48;;;14.88;;
58250;SDS011;51449;51.676;5.812;2022-08-14T05:48:27;16.08;;;14.57;;
58250;SDS011;51449;51.676;5.812;2022-08-14T05:51:03;15.40;;;14.10;;
58250;SDS011;51449;51.676;5.812;2022-08-14T05:53:28;16.38;;;14.35;;
58250;SDS011;51449;51.676;5.812;2022-08-14T05:55:54;16.08;;;14.38;;
58250;SDS011;51449;51.676;5.812;2022-08-14T05:58:17;16.13;;;14.63;;
58250;SDS011;51449;51.676;5.812;2022-08-14T06:00:41;16.20;;;14.70;;
58250;SDS011;51449;51.676;5.812;2022-08-14T06:03:06;16.48;;;14.88;;
58250;SDS011;51449;51.676;5.812;2022-08-14T06:05:32;16.55;;;14.88;;
58250;SDS011;51449;51.676;5.812;2022-08-14T06:07:59;15.80;;;14.20;;
58250;SDS011;51449;51.676;5.812;2022-08-14T06:10:29;17.25;;;15.75;;
58250;SDS011;51449;51.676;5.812;2022-08-14T06:12:54;16.02;;;14.38;;
58250;SDS011;51449;51.676;5.812;2022-08-14T06:17:50;16.33;;;14.82;;
58250;SDS011;51449;51.676;5.812;2022-08-14T06:20:19;17.42;;;15.75;;
58250;SDS011;51449;51.676;5.812;2022-08-14T06:22:43;17.15;;;15.60;;
58250;SDS011;51449;51.676;5.812;2022-08-14T06:25:10;17.02;;;15.27;;
58250;SDS011;51449;51.676;5.812;2022-08-14T06:27:40;17.40;;;15.52;;
58250;SDS011;51449;51.676;5.812;2022-08-14T06:30:06;17.52;;;15.93;;
58250;SDS011;51449;51.676;5.812;2022-08-14T06:32:31;18.10;;;16.27;;
58250;SDS011;51449;51.676;5.812;2022-08-14T06:34:59;17.60;;;16.00;;
58250;SDS011;51449;51.676;5.812;2022-08-14T06:37:50;17.60;;;16.02;;
58250;SDS011;51449;51.676;5.812;2022-08-14T06:40:19;16.30;;;14.60;;
58250;SDS011;51449;51.676;5.812;2022-08-14T06:42:49;16.50;;;15.00;;
58250;SDS011;51449;51.676;5.812;2022-08-14T06:45:15;16.45;;;14.70;;
58250;SDS011;51449;51.676;5.812;2022-08-14T06:47:39;16.02;;;14.52;;
58250;SDS011;51449;51.676;5.812;2022-08-14T06:50:04;17.52;;;15.80;;
58250;SDS011;51449;51.676;5.812;2022-08-14T06:52:31;16.85;;;15.23;;
58250;SDS011;51449;51.676;5.812;2022-08-14T06:54:54;15.40;;;13.77;;
58250;SDS011;51449;51.676;5.812;2022-08-14T06:57:17;15.73;;;14.13;;
58250;SDS011;51449;51.676;5.812;2022-08-14T07:02:03;15.73;;;14.30;;
58250;SDS011;51449;51.676;5.812;2022-08-14T07:04:49;16.75;;;15.15;;
58250;SDS011;51449;51.676;5.812;2022-08-14T07:07:38;15.25;;;13.95;;
58250;SDS011;51449;51.676;5.812;2022-08-14T07:10:03;14.25;;;12.88;;
58250;SDS011;51449;51.676;5.812;2022-08-14T07:12:26;15.00;;;13.48;;
58250;SDS011;51449;51.676;5.812;2022-08-14T07:15:09;14.88;;;13.40;;
58250;SDS011;51449;51.676;5.812;2022-08-14T07:17:32;15.50;;;14.10;;
58250;SDS011;51449;51.676;5.812;2022-08-14T07:19:56;15.50;;;13.98;;
58250;SDS011;51449;51.676;5.812;2022-08-14T07:22:19;14.60;;;13.05;;
58250;SDS011;51449;51.676;5.812;2022-08-14T07:24:42;13.73;;;12.43;;
58250;SDS011;51449;51.676;5.812;2022-08-14T07:27:04;14.07;;;12.77;;
58250;SDS011;51449;51.676;5.812;2022-08-14T07:29:29;15.73;;;13.15;;
58250;SDS011;51449;51.676;5.812;2022-08-14T07:31:53;13.55;;;12.25;;
58250;SDS011;51449;51.676;5.812;2022-08-14T07:34:16;14.13;;;12.73;;
58250;SDS011;51449;51.676;5.812;2022-08-14T07:36:57;13.75;;;12.55;;
58250;SDS011;51449;51.676;5.812;2022-08-14T07:39:21;14.02;;;12.63;;
58250;SDS011;51449;51.676;5.812;2022-08-14T07:41:48;13.23;;;11.80;;
58250;SDS011;51449;51.676;5.812;2022-08-14T07:44:10;13.23;;;11.95;;
58250;SDS011;51449;51.676;5.812;2022-08-14T07:46:52;12.48;;;11.27;;
58250;SDS011;51449;51.676;5.812;2022-08-14T07:49:14;13.18;;;11.80;;
58250;SDS011;51449;51.676;5.812;2022-08-14T07:51:38;12.55;;;11.27;;
58250;SDS011;51449;51.676;5.812;2022-08-14T07:54:01;13.27;;;11.93;;
58250;SDS011;51449;51.676;5.812;2022-08-14T07:56:23;12.10;;;10.82;;
58250;SDS011;51449;51.676;5.812;2022-08-14T07:59:06;12.93;;;11.70;;
58250;SDS011;51449;51.676;5.812;2022-08-14T08:01:29;11.75;;;10.75;;
58250;SDS011;51449;51.676;5.812;2022-08-14T08:06:21;13.25;;;10.57;;
58250;SDS011;51449;51.676;5.812;2022-08-14T08:08:44;12.50;;;11.18;;
58250;SDS011;51449;51.676;5.812;2022-08-14T08:11:24;12.00;;;10.90;;
58250;SDS011;51449;51.676;5.812;2022-08-14T08:13:55;12.75;;;11.45;;
58250;SDS011;51449;51.676;5.812;2022-08-14T08:16:21;11.07;;;9.98;;
58250;SDS011;51449;51.676;5.812;2022-08-14T08:18:44;12.85;;;10.20;;
58250;SDS011;51449;51.676;5.812;2022-08-14T08:21:06;11.15;;;10.15;;
58250;SDS011;51449;51.676;5.812;2022-08-14T08:23:29;12.52;;;11.05;;
58250;SDS011;51449;51.676;5.812;2022-08-14T08:26:11;10.73;;;9.68;;
58250;SDS011;51449;51.676;5.812;2022-08-14T08:28:34;10.88;;;9.80;;
58250;SDS011;51449;51.676;5.812;2022-08-14T08:30:57;12.10;;;10.77;;
58250;SDS011;51449;51.676;5.812;2022-08-14T08:33:26;10.90;;;9.70;;
58250;SDS011;51449;51.676;5.812;2022-08-14T08:36:02;12.15;;;10.05;;
58250;SDS011;51449;51.676;5.812;2022-08-14T08:38:38;11.93;;;10.85;;
58250;SDS011;51449;51.676;5.812;2022-08-14T08:41:21;11.40;;;10.38;;
58250;SDS011;51449;51.676;5.812;2022-08-14T08:43:43;11.73;;;10.73;;
58250;SDS011;51449;51.676;5.812;2022-08-14T08:46:11;10.48;;;9.57;;
58250;SDS011;51449;51.676;5.812;2022-08-14T08:48:45;10.68;;;9.65;;
58250;SDS011;51449;51.676;5.812;2022-08-14T08:51:30;9.80;;;8.95;;
58250;SDS011;51449;51.676;5.812;2022-08-14T09:01:40;10.57;;;9.57;;
58250;SDS011;51449;51.676;5.812;2022-08-14T09:04:03;10.70;;;9.70;;
58250;SDS011;51449;51.676;5.812;2022-08-14T09:06:47;10.98;;;9.98;;
58250;SDS011;51449;51.676;5.812;2022-08-14T09:09:31;10.43;;;9.63;;
58250;SDS011;51449;51.676;5.812;2022-08-14T09:12:14;11.10;;;10.00;;
58250;SDS011;51449;51.676;5.812;2022-08-14T09:14:36;11.30;;;10.25;;
58250;SDS011;51449;51.676;5.812;2022-08-14T09:17:00;9.70;;;8.80;;
58250;SDS011;51449;51.676;5.812;2022-08-14T09:19:22;10.15;;;9.30;;
58250;SDS011;51449;51.676;5.812;2022-08-14T09:21:44;9.98;;;9.07;;
58250;SDS011;51449;51.676;5.812;2022-08-14T09:24:07;10.52;;;9.52;;
58250;SDS011;51449;51.676;5.812;2022-08-14T09:26:50;11.05;;;10.13;;
58250;SDS011;51449;51.676;5.812;2022-08-14T09:29:13;10.50;;;9.60;;
58250;SDS011;51449;51.676;5.812;2022-08-14T09:31:36;10.48;;;9.38;;
58250;SDS011;51449;51.676;5.812;2022-08-14T09:34:20;11.45;;;10.45;;
58250;SDS011;51449;51.676;5.812;2022-08-14T09:37:22;11.25;;;10.25;;
58250;SDS011;51449;51.676;5.812;2022-08-14T09:42:49;11.55;;;10.52;;
58250;SDS011;51449;51.676;5.812;2022-08-14T09:45:46;10.80;;;9.80;;
58250;SDS011;51449;51.676;5.812;2022-08-14T09:48:15;10.75;;;9.70;;
58250;SDS011;51449;51.676;5.812;2022-08-14T09:50:46;10.70;;;9.70;;
58250;SDS011;51449;51.676;5.812;2022-08-14T09:53:30;10.90;;;9.90;;
58250;SDS011;51449;51.676;5.812;2022-08-14T09:56:16;10.48;;;9.50;;
58250;SDS011;51449;51.676;5.812;2022-08-14T09:58:51;10.15;;;8.90;;
58250;SDS011;51449;51.676;5.812;2022-08-14T10:01:14;11.02;;;9.48;;
58250;SDS011;51449;51.676;5.812;2022-08-14T10:03:47;10.48;;;9.55;;
58250;SDS011;51449;51.676;5.812;2022-08-14T10:06:21;9.73;;;9.00;;
58250;SDS011;51449;51.676;5.812;2022-08-14T10:08:50;9.10;;;8.20;;
58250;SDS011;51449;51.676;5.812;2022-08-14T10:11:27;10.93;;;8.57;;
58250;SDS011;51449;51.676;5.812;2022-08-14T10:13:57;9.25;;;7.93;;
58250;SDS011;51449;51.676;5.812;2022-08-14T10:16:39;9.63;;;8.23;;
58250;SDS011;51449;51.676;5.812;2022-08-14T10:19:08;8.52;;;7.82;;
58250;SDS011;51449;51.676;5.812;2022-08-14T10:21:37;8.35;;;7.55;;
58250;SDS011;51449;51.676;5.812;2022-08-14T10:24:22;8.80;;;7.43;;
58250;SDS011;51449;51.676;5.812;2022-08-14T10:26:59;8.88;;;7.97;;
58250;SDS011;51449;51.676;5.812;2022-08-14T10:29:30;10.00;;;9.00;;
58250;SDS011;51449;51.676;5.812;2022-08-14T10:31:58;8.82;;;7.93;;
58250;SDS011;51449;51.676;5.812;2022-08-14T10:34:20;9.43;;;8.23;;
58250;SDS011;51449;51.676;5.812;2022-08-14T10:37:00;8.50;;;7.53;;
58250;SDS011;51449;51.676;5.812;2022-08-14T10:39:35;10.00;;;8.32;;
58250;SDS011;51449;51.676;5.812;2022-08-14T10:42:20;8.88;;;8.18;;
58250;SDS011;51449;51.676;5.812;2022-08-14T10:44:42;9.25;;;8.35;;
58250;SDS011;51449;51.676;5.812;2022-08-14T10:47:13;8.73;;;8.00;;
58250;SDS011;51449;51.676;5.812;2022-08-14T10:49:59;7.60;;;6.90;;
58250;SDS011;51449;51.676;5.812;2022-08-14T10:52:23;7.15;;;6.45;;
58250;SDS011;51449;51.676;5.812;2022-08-14T10:55:04;7.03;;;6.47;;
58250;SDS011;51449;51.676;5.812;2022-08-14T10:57:45;7.25;;;6.60;;
58250;SDS011;51449;51.676;5.812;2022-08-14T11:00:18;7.90;;;7.20;;
58250;SDS011;51449;51.676;5.812;2022-08-14T11:02:57;7.55;;;6.75;;
58250;SDS011;51449;51.676;5.812;2022-08-14T11:05:23;7.95;;;7.22;;
58250;SDS011;51449;51.676;5.812;2022-08-14T11:10:22;6.40;;;5.82;;
58250;SDS011;51449;51.676;5.812;2022-08-14T11:12:55;7.35;;;6.60;;
58250;SDS011;51449;51.676;5.812;2022-08-14T11:15:23;7.72;;;6.78;;
58250;SDS011;51449;51.676;5.812;2022-08-14T11:17:48;6.95;;;6.28;;
58250;SDS011;51449;51.676;5.812;2022-08-14T11:22:37;7.75;;;6.93;;
58250;SDS011;51449;51.676;5.812;2022-08-14T11:25:18;8.15;;;6.63;;
58250;SDS011;51449;51.676;5.812;2022-08-14T11:27:44;7.05;;;6.38;;
58250;SDS011;51449;51.676;5.812;2022-08-14T11:30:11;7.55;;;6.85;;
58250;SDS011;51449;51.676;5.812;2022-08-14T11:32:56;7.10;;;6.40;;
58250;SDS011;51449;51.676;5.812;2022-08-14T11:35:20;8.75;;;6.55;;
58250;SDS011;51449;51.676;5.812;2022-08-14T11:38:08;7.03;;;6.43;;
58250;SDS011;51449;51.676;5.812;2022-08-14T11:40:34;6.90;;;6.30;;
58250;SDS011;51449;51.676;5.812;2022-08-14T11:42:59;7.10;;;6.38;;
58250;SDS011;51449;51.676;5.812;2022-08-14T11:45:26;7.55;;;6.95;;
58250;SDS011;51449;51.676;5.812;2022-08-14T11:47:58;7.65;;;6.85;;
58250;SDS011;51449;51.676;5.812;2022-08-14T11:50:42;6.90;;;6.30;;
58250;SDS011;51449;51.676;5.812;2022-08-14T11:53:16;6.85;;;6.07;;
58250;SDS011;51449;51.676;5.812;2022-08-14T11:56:02;6.88;;;5.93;;
58250;SDS011;51449;51.676;5.812;2022-08-14T11:58:30;6.40;;;5.35;;
58250;SDS011;51449;51.676;5.812;2022-08-14T12:00:59;6.68;;;6.10;;
58250;SDS011;51449;51.676;5.812;2022-08-14T12:03:36;7.40;;;6.65;;
58250;SDS011;51449;51.676;5.812;2022-08-14T12:06:18;6.70;;;6.10;;
58250;SDS011;51449;51.676;5.812;2022-08-14T12:08:59;6.80;;;6.30;;
58250;SDS011;51449;51.676;5.812;2022-08-14T12:11:21;7.00;;;6.38;;
58250;SDS011;51449;51.676;5.812;2022-08-14T12:13:43;7.68;;;7.05;;
58250;SDS011;51449;51.676;5.812;2022-08-14T12:16:16;7.43;;;6.93;;
58250;SDS011;51449;51.676;5.812;2022-08-14T12:18:44;8.48;;;7.55;;
58250;SDS011;51449;51.676;5.812;2022-08-14T12:21:14;7.10;;;6.43;;
58250;SDS011;51449;51.676;5.812;2022-08-14T12:23:59;8.10;;;7.30;;
58250;SDS011;51449;51.676;5.812;2022-08-14T12:26:28;7.57;;;6.97;;
58250;SDS011;51449;51.676;5.812;2022-08-14T12:29:05;7.82;;;7.18;;
58250;SDS011;51449;51.676;5.812;2022-08-14T12:31:28;7.03;;;6.40;;
58250;SDS011;51449;51.676;5.812;2022-08-14T12:34:05;7.10;;;6.43;;
58250;SDS011;51449;51.676;5.812;2022-08-14T12:36:31;6.30;;;5.78;;
58250;SDS011;51449;51.676;5.812;2022-08-14T12:38:53;7.20;;;6.50;;
58250;SDS011;51449;51.676;5.812;2022-08-14T12:41:18;6.53;;;5.80;;
58250;SDS011;51449;51.676;5.812;2022-08-14T12:43:52;7.25;;;6.10;;
58250;SDS011;51449;51.676;5.812;2022-08-14T12:49:26;7.18;;;6.57;;
58250;SDS011;51449;51.676;5.812;2022-08-14T12:51:56;7.15;;;6.55;;
58250;SDS011;51449;51.676;5.812;2022-08-14T12:54:21;7.43;;;6.82;;
58250;SDS011;51449;51.676;5.812;2022-08-14T12:56:49;7.22;;;6.53;;
58250;SDS011;51449;51.676;5.812;2022-08-14T12:59:15;7.25;;;6.70;;
58250;SDS011;51449;51.676;5.812;2022-08-14T13:01:37;8.05;;;7.35;;
58250;SDS011;51449;51.676;5.812;2022-08-14T13:04:21;7.07;;;6.57;;
58250;SDS011;51449;51.676;5.812;2022-08-14T13:06:45;7.07;;;6.53;;
58250;SDS011;51449;51.676;5.812;2022-08-14T13:09:12;7.05;;;6.45;;
58250;SDS011;51449;51.676;5.812;2022-08-14T13:14:05;6.80;;;6.30;;
58250;SDS011;51449;51.676;5.812;2022-08-14T13:16:37;7.13;;;6.43;;
58250;SDS011;51449;51.676;5.812;2022-08-14T13:19:00;6.93;;;6.43;;
58250;SDS011;51449;51.676;5.812;2022-08-14T13:21:23;7.07;;;6.38;;
58250;SDS011;51449;51.676;5.812;2022-08-14T13:23:49;6.53;;;6.03;;
58250;SDS011;51449;51.676;5.812;2022-08-14T13:26:11;6.85;;;6.30;;
58250;SDS011;51449;51.676;5.812;2022-08-14T13:28:37;6.72;;;6.22;;
58250;SDS011;51449;51.676;5.812;2022-08-14T13:31:23;7.55;;;6.78;;
58250;SDS011;51449;51.676;5.812;2022-08-14T13:33:51;7.05;;;6.47;;
58250;SDS011;51449;51.676;5.812;2022-08-14T13:36:14;7.70;;;6.70;;
58250;SDS011;51449;51.676;5.812;2022-08-14T13:38:58;6.28;;;5.68;;
58250;SDS011;51449;51.676;5.812;2022-08-14T13:41:21;7.20;;;6.60;;
58250;SDS011;51449;51.676;5.812;2022-08-14T13:43:54;7.75;;;7.25;;
58250;SDS011;51449;51.676;5.812;2022-08-14T13:46:20;7.18;;;6.50;;
58250;SDS011;51449;51.676;5.812;2022-08-14T13:48:48;7.60;;;6.97;;
58250;SDS011;51449;51.676;5.812;2022-08-14T13:51:13;7.40;;;6.75;;
58250;SDS011;51449;51.676;5.812;2022-08-14T13:53:41;7.68;;;6.85;;
58250;SDS011;51449;51.676;5.812;2022-08-14T13:56:29;7.68;;;6.97;;
58250;SDS011;51449;51.676;5.812;2022-08-14T13:58:57;7.57;;;6.88;;
58250;SDS011;51449;51.676;5.812;2022-08-14T14:01:21;7.10;;;6.50;;
58250;SDS011;51449;51.676;5.812;2022-08-14T14:03:48;7.10;;;6.50;;
58250;SDS011;51449;51.676;5.812;2022-08-14T14:06:16;9.18;;;6.50;;
58250;SDS011;51449;51.676;5.812;2022-08-14T14:08:44;7.43;;;6.78;;
58250;SDS011;51449;51.676;5.812;2022-08-14T14:11:09;6.80;;;6.20;;
58250;SDS011;51449;51.676;5.812;2022-08-14T14:13:36;6.78;;;6.28;;
58250;SDS011;51449;51.676;5.812;2022-08-14T14:16:05;6.40;;;5.85;;
58250;SDS011;51449;51.676;5.812;2022-08-14T14:18:30;6.88;;;6.20;;
58250;SDS011;51449;51.676;5.812;2022-08-14T14:20:56;6.72;;;6.22;;
58250;SDS011;51449;51.676;5.812;2022-08-14T14:23:19;7.55;;;6.75;;
58250;SDS011;51449;51.676;5.812;2022-08-14T14:25:42;7.13;;;6.63;;
58250;SDS011;51449;51.676;5.812;2022-08-14T14:28:17;7.07;;;6.57;;
58250;SDS011;51449;51.676;5.812;2022-08-14T14:30:46;6.38;;;5.78;;
58250;SDS011;51449;51.676;5.812;2022-08-14T14:33:15;6.55;;;5.95;;
58250;SDS011;51449;51.676;5.812;2022-08-14T14:35:58;7.22;;;6.63;;
58250;SDS011;51449;51.676;5.812;2022-08-14T14:38:25;7.05;;;6.45;;
58250;SDS011;51449;51.676;5.812;2022-08-14T14:40:53;6.47;;;5.90;;
58250;SDS011;51449;51.676;5.812;2022-08-14T14:43:22;7.13;;;6.47;;
58250;SDS011;51449;51.676;5.812;2022-08-14T14:45:46;7.28;;;6.57;;
58250;SDS011;51449;51.676;5.812;2022-08-14T14:48:13;6.55;;;5.93;;
58250;SDS011;51449;51.676;5.812;2022-08-14T14:50:35;6.40;;;5.90;;
58250;SDS011;51449;51.676;5.812;2022-08-14T14:53:01;6.88;;;5.65;;
58250;SDS011;51449;51.676;5.812;2022-08-14T14:55:33;6.32;;;5.80;;
58250;SDS011;51449;51.676;5.812;2022-08-14T14:58:15;6.20;;;5.70;;
58250;SDS011;51449;51.676;5.812;2022-08-14T15:00:41;6.47;;;5.95;;
58250;SDS011;51449;51.676;5.812;2022-08-14T15:03:04;6.43;;;5.93;;
58250;SDS011;51449;51.676;5.812;2022-08-14T15:05:27;7.30;;;6.80;;
58250;SDS011;51449;51.676;5.812;2022-08-14T15:07:53;8.30;;;6.20;;
58250;SDS011;51449;51.676;5.812;2022-08-14T15:10:16;6.72;;;6.10;;
58250;SDS011;51449;51.676;5.812;2022-08-14T15:12:52;6.80;;;6.28;;
58250;SDS011;51449;51.676;5.812;2022-08-14T15:15:17;6.78;;;6.32;;
58250;SDS011;51449;51.676;5.812;2022-08-14T15:17:40;6.85;;;6.30;;
58250;SDS011;51449;51.676;5.812;2022-08-14T15:20:06;7.57;;;6.97;;
58250;SDS011;51449;51.676;5.812;2022-08-14T15:22:50;7.05;;;6.45;;
58250;SDS011;51449;51.676;5.812;2022-08-14T15:25:14;6.93;;;6.43;;
58250;SDS011;51449;51.676;5.812;2022-08-14T15:27:39;6.93;;;6.32;;